createdAt,value
2022-08-09T00:00:23.480Z,4.47
2022-08-09T00:02:52.311Z,4.05
2022-08-09T00:06:16.162Z,4.00
2022-08-09T00:08:12.954Z,4.40
2022-08-09T00:11:00.978Z,3.80
2022-08-09T00:13:34.360Z,4.10
2022-08-09T00:16:06.628Z,4.53
2022-08-09T00:18:36.173Z,3.90
2022-08-09T00:21:08.418Z,4.50
2022-08-09T00:23:54.874Z,4.43
2022-08-09T00:26:32.354Z,4.05
2022-08-09T00:29:02.556Z,4.55
2022-08-09T00:31:59.267Z,4.32
2022-08-09T00:34:20.436Z,4.15
2022-08-09T00:36:49.419Z,4.18
2022-08-09T00:40:10.208Z,4.25
2022-08-09T00:44:19.181Z,4.28
2022-08-09T00:44:56.495Z,4.13
2022-08-09T00:47:25.421Z,4.50
2022-08-09T00:49:56.474Z,4.22
2022-08-09T00:52:30.082Z,4.65
2022-08-09T00:55:01.219Z,3.83
2022-08-09T00:57:34.710Z,4.78
2022-08-09T01:00:21.859Z,4.40
2022-08-09T01:02:54.861Z,4.00
2022-08-09T01:05:46.426Z,4.32
2022-08-09T01:08:28.543Z,4.13
2022-08-09T01:11:09.709Z,4.15
2022-08-09T01:13:59.418Z,4.32
2022-08-09T01:16:35.101Z,3.90
2022-08-09T01:19:17.147Z,4.20
2022-08-09T01:22:26.168Z,3.78
2022-08-09T01:25:01.869Z,4.00
2022-08-09T01:27:34.826Z,4.07
2022-08-09T01:30:08.312Z,3.90
2022-08-09T01:32:58.641Z,4.13
2022-08-09T01:35:38.311Z,3.60
2022-08-09T01:38:15.415Z,3.38
2022-08-09T01:40:52.990Z,3.83
2022-08-09T01:43:51.070Z,3.92
2022-08-09T01:46:25.286Z,3.45
2022-08-09T01:48:59.779Z,3.20
2022-08-09T01:51:32.233Z,3.33
2022-08-09T01:54:02.469Z,3.35
2022-08-09T01:56:34.578Z,3.35
2022-08-09T01:59:10.508Z,3.90
2022-08-09T02:02:00.136Z,3.70
2022-08-09T02:04:31.397Z,3.58
2022-08-09T02:07:18.415Z,3.20
2022-08-09T02:10:01.361Z,3.88
2022-08-09T02:12:35.010Z,3.70
2022-08-09T02:15:11.728Z,3.55
2022-08-09T02:18:01.113Z,3.50
2022-08-09T02:20:36.332Z,4.00
2022-08-09T02:23:09.388Z,3.90
2022-08-09T02:25:49.494Z,3.85
2022-08-09T02:28:24.524Z,3.63
2022-08-09T02:31:02.683Z,3.83
2022-08-09T02:33:38.057Z,4.40
2022-08-09T02:36:41.980Z,4.30
2022-08-09T02:39:20.097Z,3.47
2022-08-09T02:42:06.949Z,4.47
2022-08-09T02:44:38.845Z,4.20
2022-08-09T02:47:12.765Z,4.30
2022-08-09T02:49:46.705Z,4.40
2022-08-09T02:52:29.720Z,4.32
2022-08-09T02:55:20.146Z,4.13
2022-08-09T02:58:00.573Z,4.55
2022-08-09T03:00:58.208Z,4.50
2022-08-09T03:04:12.823Z,4.38
2022-08-09T03:06:19.735Z,4.30
2022-08-09T03:08:52.831Z,4.30
2022-08-09T03:12:04.217Z,4.38
2022-08-09T03:14:12.447Z,4.40
2022-08-09T03:16:45.088Z,4.22
2022-08-09T03:19:52.282Z,4.50
2022-08-09T03:22:11.864Z,4.30
2022-08-09T03:25:06.578Z,4.47
2022-08-09T03:27:45.327Z,4.15
2022-08-09T03:30:30.129Z,4.60
2022-08-09T03:33:12.852Z,4.50
2022-08-09T03:36:12.904Z,4.45
2022-08-09T03:38:42.058Z,4.60
2022-08-09T03:41:15.279Z,4.15
2022-08-09T03:43:51.883Z,3.88
2022-08-09T03:46:32.451Z,4.50
2022-08-09T03:49:04.185Z,4.18
2022-08-09T03:51:58.397Z,4.47
2022-08-09T03:54:31.158Z,4.50
2022-08-09T03:57:04.327Z,4.03
2022-08-09T03:59:54.248Z,4.22
2022-08-09T04:02:26.953Z,5.35
2022-08-09T04:04:58.470Z,4.78
2022-08-09T04:07:47.847Z,4.70
2022-08-09T04:10:18.425Z,4.60
2022-08-09T04:12:50.914Z,4.93
2022-08-09T04:15:42.825Z,4.82
2022-08-09T04:18:08.848Z,4.78
2022-08-09T04:20:36.859Z,4.85
2022-08-09T04:23:09.850Z,4.78
2022-08-09T04:25:38.538Z,4.90
2022-08-09T04:28:07.151Z,5.10
2022-08-09T04:30:35.218Z,4.80
2022-08-09T04:33:03.255Z,4.80
2022-08-09T04:35:32.892Z,5.00
2022-08-09T04:38:03.511Z,4.70
2022-08-09T04:40:47.137Z,4.75
2022-08-09T04:43:15.888Z,4.85
2022-08-09T04:45:53.510Z,5.00
2022-08-09T04:48:23.883Z,4.95
2022-08-09T04:51:01.818Z,4.82
2022-08-09T04:53:31.342Z,4.30
2022-08-09T04:56:01.121Z,4.65
2022-08-09T04:58:31.827Z,5.35
2022-08-09T05:01:03.403Z,4.72
2022-08-09T05:03:42.722Z,4.97
2022-08-09T05:06:21.999Z,5.03
2022-08-09T05:09:00.566Z,4.78
2022-08-09T05:11:32.298Z,4.90
2022-08-09T05:14:05.982Z,5.30
2022-08-09T05:16:58.042Z,5.18
2022-08-09T05:19:25.537Z,5.55
2022-08-09T05:21:56.041Z,5.18
2022-08-09T05:24:24.883Z,5.05
2022-08-09T05:26:54.616Z,5.30
2022-08-09T05:29:31.624Z,5.25
2022-08-09T05:32:03.394Z,5.20
2022-08-09T05:34:34.055Z,5.57
2022-08-09T05:37:06.856Z,5.05
2022-08-09T05:39:43.661Z,4.90
2022-08-09T05:42:20.592Z,4.93
2022-08-09T05:44:56.945Z,5.35
2022-08-09T05:47:30.461Z,5.60
2022-08-09T05:50:26.786Z,5.68
2022-08-09T05:52:53.670Z,5.20
2022-08-09T05:55:24.029Z,5.30
2022-08-09T05:57:56.420Z,5.70
2022-08-09T06:00:26.890Z,5.80
2022-08-09T06:02:58.706Z,5.07
2022-08-09T06:05:49.978Z,5.78
2022-08-09T06:08:19.440Z,5.18
2022-08-09T06:10:52.238Z,5.43
2022-08-09T06:13:21.825Z,5.10
2022-08-09T06:15:51.669Z,5.93
2022-08-09T06:18:23.791Z,5.13
2022-08-09T06:20:57.085Z,4.80
2022-08-09T06:23:55.170Z,5.35
2022-08-09T06:26:20.075Z,5.22
2022-08-09T06:28:59.434Z,5.68
2022-08-09T06:31:30.977Z,6.00
2022-08-09T06:33:59.783Z,5.68
2022-08-09T06:36:30.038Z,6.00
2022-08-09T06:38:58.935Z,5.75
2022-08-09T06:42:08.244Z,5.97
2022-08-09T06:44:20.058Z,6.15
2022-08-09T06:46:55.288Z,5.85
2022-08-09T06:49:44.752Z,5.80
2022-08-09T06:52:12.217Z,6.40
2022-08-09T06:54:44.080Z,6.18
2022-08-09T06:57:13.376Z,6.10
2022-08-09T07:00:49.543Z,5.30
2022-08-09T07:02:31.819Z,5.72
2022-08-09T07:05:00.229Z,5.20
2022-08-09T07:07:59.023Z,4.70
2022-08-09T07:10:30.003Z,4.63
2022-08-09T07:13:18.579Z,4.97
2022-08-09T07:16:36.369Z,4.68
2022-08-09T07:18:38.636Z,4.20
2022-08-09T07:21:07.683Z,4.18
2022-08-09T07:23:36.484Z,4.43
2022-08-09T07:26:24.267Z,4.10
2022-08-09T07:29:09.411Z,3.75
2022-08-09T07:31:45.452Z,3.60
2022-08-09T07:34:20.635Z,4.25
2022-08-09T07:36:49.592Z,3.85
2022-08-09T07:39:20.193Z,4.15
2022-08-09T07:42:06.631Z,4.00
2022-08-09T07:44:51.153Z,3.42
2022-08-09T07:47:39.493Z,3.63
2022-08-09T07:50:10.851Z,3.28
2022-08-09T07:52:41.366Z,3.72
2022-08-09T07:55:11.770Z,3.40
2022-08-09T07:57:46.837Z,3.20
2022-08-09T08:00:20.835Z,3.63
2022-08-09T08:03:08.411Z,3.67
2022-08-09T08:05:39.274Z,3.80
2022-08-09T08:09:01.126Z,3.60
2022-08-09T08:12:25.062Z,3.75
2022-08-09T08:13:58.816Z,3.38
2022-08-09T08:16:31.326Z,3.60
2022-08-09T08:19:03.233Z,3.45
2022-08-09T08:21:32.649Z,3.55
2022-08-09T08:24:01.130Z,3.97
2022-08-09T08:26:52.467Z,3.72
2022-08-09T08:29:20.122Z,3.35
2022-08-09T08:32:03.204Z,3.53
2022-08-09T08:34:36.606Z,3.33
2022-08-09T08:37:05.355Z,3.10
2022-08-09T08:39:43.407Z,3.40
2022-08-09T08:42:13.578Z,3.42
2022-08-09T08:44:43.857Z,2.97
2022-08-09T08:47:15.167Z,2.97
2022-08-09T08:49:48.358Z,2.72
2022-08-09T08:55:08.526Z,3.20
2022-08-09T08:57:37.892Z,3.20
2022-08-09T09:00:16.951Z,3.25
2022-08-09T09:03:04.416Z,3.38
2022-08-09T09:06:03.326Z,3.15
2022-08-09T09:08:30.437Z,2.72
2022-08-09T09:11:03.662Z,2.78
2022-08-09T09:13:50.290Z,2.55
2022-08-09T09:16:30.171Z,2.53
2022-08-09T09:19:37.296Z,2.35
2022-08-09T09:22:05.423Z,2.47
2022-08-09T09:24:39.714Z,2.50
2022-08-09T09:27:22.169Z,2.17
2022-08-09T09:30:11.404Z,2.20
2022-08-09T09:32:44.843Z,2.40
2022-08-09T09:35:15.876Z,2.00
2022-08-09T09:37:47.225Z,2.50
2022-08-09T09:40:15.494Z,2.53
2022-08-09T09:42:56.541Z,2.58
2022-08-09T09:45:26.805Z,2.17
2022-08-09T09:47:58.625Z,4.47
2022-08-09T09:50:50.558Z,4.63
2022-08-09T09:53:25.050Z,2.55
2022-08-09T09:56:20.100Z,2.13
2022-08-09T09:58:59.034Z,1.95
2022-08-09T10:01:36.921Z,1.90
2022-08-09T10:04:13.896Z,1.92
2022-08-09T10:06:46.948Z,1.60
2022-08-09T10:09:22.454Z,2.00
2022-08-09T10:12:07.794Z,1.83
2022-08-09T10:14:47.975Z,1.70
2022-08-09T10:17:50.735Z,1.77
2022-08-09T10:20:32.370Z,1.50
2022-08-09T10:23:17.217Z,2.00
2022-08-09T10:26:06.184Z,1.88
2022-08-09T10:28:37.342Z,1.65
2022-08-09T10:34:11.450Z,2.10
2022-08-09T10:36:43.296Z,1.70
2022-08-09T10:39:15.661Z,1.50
2022-08-09T10:41:45.624Z,1.80
2022-08-09T10:44:18.815Z,1.50
2022-08-09T10:48:12.058Z,1.90
2022-08-09T10:50:14.963Z,1.60
2022-08-09T10:53:10.496Z,1.50
2022-08-09T10:55:58.026Z,1.60
2022-08-09T10:58:33.696Z,2.15
2022-08-09T11:03:02.714Z,1.90
2022-08-09T11:04:30.706Z,1.95
2022-08-09T11:07:57.848Z,2.17
2022-08-09T11:10:17.878Z,1.95
2022-08-09T11:13:49.063Z,1.90
2022-08-09T11:16:36.210Z,2.00
2022-08-09T11:19:09.570Z,1.90
2022-08-09T11:22:05.038Z,1.95
2022-08-09T11:25:05.461Z,1.80
2022-08-09T11:28:03.055Z,1.95
2022-08-09T11:30:35.902Z,2.00
2022-08-09T11:33:10.642Z,2.00
2022-08-09T11:35:49.683Z,1.83
2022-08-09T11:38:22.619Z,2.00
2022-08-09T11:41:06.008Z,2.70
2022-08-09T11:43:42.437Z,2.28
2022-08-09T11:46:11.367Z,2.60
2022-08-09T11:48:52.164Z,2.22
2022-08-09T11:52:48.750Z,2.25
2022-08-09T11:54:28.926Z,2.33
2022-08-09T11:57:56.392Z,2.70
2022-08-09T12:00:28.177Z,2.40
2022-08-09T12:02:57.784Z,2.15
2022-08-09T12:05:37.967Z,2.20
2022-08-09T12:08:12.088Z,2.72
2022-08-09T12:10:48.285Z,2.20
2022-08-09T12:14:08.447Z,2.17
2022-08-09T12:16:37.760Z,2.20
2022-08-09T12:19:08.896Z,2.30
2022-08-09T12:21:48.624Z,2.25
2022-08-09T12:24:24.054Z,2.58
2022-08-09T12:28:59.954Z,8.20
2022-08-09T12:30:01.499Z,4.55
2022-08-09T12:32:42.224Z,7.82
2022-08-09T12:35:13.377Z,2.50
2022-08-09T12:37:51.675Z,2.42
2022-08-09T12:40:23.255Z,2.35
2022-08-09T12:42:53.277Z,2.30
2022-08-09T12:45:33.519Z,2.20
2022-08-09T12:48:10.716Z,2.55
2022-08-09T12:50:49.540Z,2.30
2022-08-09T12:53:37.631Z,2.28
2022-08-09T12:56:13.815Z,2.38
2022-08-09T12:59:09.189Z,2.58
2022-08-09T13:01:42.623Z,2.40
2022-08-09T13:04:37.017Z,2.30
2022-08-09T13:07:11.994Z,1.90
2022-08-09T13:09:56.018Z,2.10
2022-08-09T13:15:21.631Z,2.20
2022-08-09T13:18:04.702Z,2.10
2022-08-09T13:21:04.183Z,2.10
2022-08-09T13:24:42.501Z,2.20
2022-08-09T13:26:43.669Z,2.10
2022-08-09T13:29:20.669Z,2.15
2022-08-09T13:32:17.630Z,2.00
2022-08-09T13:34:49.308Z,1.92
2022-08-09T13:37:50.666Z,2.30
2022-08-09T13:41:46.298Z,2.45
2022-08-09T13:43:03.529Z,2.45
2022-08-09T13:46:42.714Z,2.10
2022-08-09T13:48:21.491Z,2.50
2022-08-09T13:50:49.520Z,2.10
2022-08-09T13:53:17.747Z,2.47
2022-08-09T13:55:47.822Z,2.10
2022-08-09T13:58:17.449Z,2.30
2022-08-09T14:00:50.327Z,2.20
2022-08-09T14:04:02.458Z,2.30
2022-08-09T14:06:19.522Z,2.00
2022-08-09T14:08:55.027Z,2.15
2022-08-09T14:11:23.746Z,2.03
2022-08-09T14:14:23.194Z,2.25
2022-08-09T14:16:41.177Z,2.10
2022-08-09T14:19:09.572Z,2.17
2022-08-09T14:21:38.154Z,2.00
2022-08-09T14:24:18.806Z,2.22
2022-08-09T14:26:51.344Z,1.90
2022-08-09T14:29:25.764Z,2.03
2022-08-09T14:32:11.384Z,2.30
2022-08-09T14:34:44.380Z,2.10
2022-08-09T14:37:12.940Z,1.90
2022-08-09T14:39:47.455Z,2.30
2022-08-09T14:42:30.657Z,2.08
2022-08-09T14:46:57.369Z,2.13
2022-08-09T14:48:02.408Z,2.17
2022-08-09T14:50:34.099Z,2.30
2022-08-09T14:53:06.143Z,2.17
2022-08-09T14:55:42.124Z,2.10
2022-08-09T14:58:12.364Z,2.00
2022-08-09T15:00:42.618Z,2.17
2022-08-09T15:03:20.089Z,2.20
2022-08-09T15:05:52.537Z,2.20
2022-08-09T15:08:25.089Z,2.20
2022-08-09T15:11:00.721Z,2.40
2022-08-09T15:13:56.455Z,2.03
2022-08-09T15:16:19.639Z,2.40
2022-08-09T15:18:48.443Z,2.03
2022-08-09T15:21:55.135Z,2.05
2022-08-09T15:24:13.047Z,2.63
2022-08-09T15:26:45.375Z,2.40
2022-08-09T15:30:57.712Z,2.00
2022-08-09T15:32:05.470Z,2.20
2022-08-09T15:34:54.450Z,2.30
2022-08-09T15:37:56.869Z,2.42
2022-08-09T15:40:32.047Z,2.10
2022-08-09T15:43:02.643Z,2.22
2022-08-09T15:45:30.861Z,2.25
2022-08-09T15:48:28.753Z,2.20
2022-08-09T15:50:57.935Z,2.30
2022-08-09T15:54:05.384Z,2.47
2022-08-09T15:56:29.301Z,2.50
2022-08-09T15:58:59.803Z,2.15
2022-08-09T16:01:31.431Z,2.53
2022-08-09T16:04:04.891Z,2.28
2022-08-09T16:06:37.361Z,2.30
2022-08-09T16:09:06.240Z,2.30
2022-08-09T16:11:34.465Z,2.65
2022-08-09T16:14:06.901Z,2.50
2022-08-09T16:16:37.280Z,2.70
2022-08-09T16:19:08.559Z,2.38
2022-08-09T16:21:36.734Z,2.40
2022-08-09T16:24:20.119Z,2.22
2022-08-09T16:26:59.435Z,2.40
2022-08-09T16:29:36.806Z,2.28
2022-08-09T16:32:19.004Z,2.40
2022-08-09T16:34:58.126Z,2.22
2022-08-09T16:37:53.380Z,2.30
2022-08-09T16:40:20.457Z,2.50
2022-08-09T16:43:16.514Z,2.40
2022-08-09T16:45:46.437Z,2.30
2022-08-09T16:48:38.849Z,2.30
2022-08-09T16:51:07.962Z,2.38
2022-08-09T16:54:02.363Z,2.40
2022-08-09T16:56:30.610Z,2.53
2022-08-09T16:58:59.252Z,2.28
2022-08-09T17:01:33.936Z,2.22
2022-08-09T17:04:02.264Z,2.70
2022-08-09T17:06:33.741Z,2.28
2022-08-09T17:09:45.339Z,2.38
2022-08-09T17:12:09.844Z,2.33
2022-08-09T17:14:37.849Z,2.38
2022-08-09T17:17:12.892Z,2.78
2022-08-09T17:20:32.574Z,2.70
2022-08-09T17:22:51.752Z,2.47
2022-08-09T17:25:22.183Z,2.65
2022-08-09T17:27:53.939Z,3.05
2022-08-09T17:30:25.962Z,2.53
2022-08-09T17:33:00.543Z,3.03
2022-08-09T17:35:33.845Z,2.22
2022-08-09T17:38:29.247Z,2.47
2022-08-09T17:40:51.932Z,2.38
2022-08-09T17:43:33.740Z,3.13
2022-08-09T17:46:07.110Z,2.70
2022-08-09T17:48:38.868Z,3.13
2022-08-09T17:51:17.534Z,3.00
2022-08-09T17:53:52.292Z,2.97
2022-08-09T17:56:35.961Z,2.45
2022-08-09T17:59:11.974Z,2.42
2022-08-09T18:02:07.433Z,2.67
2022-08-09T18:04:33.478Z,2.90
2022-08-09T18:07:04.667Z,3.25
2022-08-09T18:09:41.396Z,2.50
2022-08-09T18:12:18.276Z,2.63
2022-08-09T18:14:54.660Z,2.90
2022-08-09T18:17:27.313Z,3.13
2022-08-09T18:20:56.085Z,2.83
2022-08-09T18:23:05.614Z,2.83
2022-08-09T18:25:50.625Z,3.13
2022-08-09T18:30:35.655Z,3.70
2022-08-09T18:31:09.879Z,3.05
2022-08-09T18:33:38.041Z,3.17
2022-08-09T18:36:14.148Z,3.03
2022-08-09T18:38:57.300Z,3.40
2022-08-09T18:41:35.096Z,3.45
2022-08-09T18:44:10.592Z,3.53
2022-08-09T18:46:50.146Z,3.20
2022-08-09T18:49:32.082Z,3.50
2022-08-09T18:52:10.122Z,3.65
2022-08-09T18:54:42.031Z,3.22
2022-08-09T18:57:19.918Z,3.65
2022-08-09T18:59:54.427Z,3.38
2022-08-09T19:02:32.265Z,2.80
2022-08-09T19:05:03.848Z,3.15
2022-08-09T19:08:04.597Z,2.78
2022-08-09T19:10:37.148Z,3.10
2022-08-09T19:13:18.853Z,3.30
2022-08-09T19:15:52.297Z,3.42
2022-08-09T19:18:34.063Z,9.40
2022-08-09T19:21:09.627Z,3.30
2022-08-09T19:24:33.096Z,3.10
2022-08-09T19:26:31.836Z,3.60
2022-08-09T19:29:03.622Z,4.00
2022-08-09T19:31:45.545Z,3.63
2022-08-09T19:34:21.650Z,3.45
2022-08-09T19:36:52.063Z,3.17
2022-08-09T19:39:43.523Z,3.80
2022-08-09T19:42:08.910Z,4.13
2022-08-09T19:44:44.599Z,4.40
2022-08-09T19:47:22.791Z,4.15
2022-08-09T19:50:06.599Z,4.00
2022-08-09T19:52:37.351Z,4.10
2022-08-09T19:55:19.483Z,3.67
2022-08-09T19:57:54.124Z,3.80
2022-08-09T20:00:23.609Z,3.40
2022-08-09T20:04:09.574Z,3.97
2022-08-09T20:05:47.008Z,3.58
2022-08-09T20:08:33.219Z,4.15
2022-08-09T20:11:04.462Z,4.10
2022-08-09T20:13:37.011Z,3.92
2022-08-09T20:16:37.127Z,4.40
2022-08-09T20:19:41.851Z,3.40
2022-08-09T20:21:56.299Z,4.32
2022-08-09T20:24:29.764Z,3.95
2022-08-09T20:27:01.604Z,4.00
2022-08-09T20:29:37.062Z,4.28
2022-08-09T20:32:29.420Z,4.50
2022-08-09T20:34:58.603Z,4.30
2022-08-09T20:38:18.462Z,4.07
2022-08-09T20:40:26.450Z,4.47
2022-08-09T20:42:59.575Z,3.70
2022-08-09T20:46:01.158Z,4.72
2022-08-09T20:48:21.119Z,4.32
2022-08-09T20:50:55.724Z,4.32
2022-08-09T20:53:35.191Z,4.28
2022-08-09T20:56:06.447Z,4.38
2022-08-09T20:58:38.120Z,4.40
2022-08-09T21:01:32.974Z,4.75
2022-08-09T21:04:35.633Z,4.80
2022-08-09T21:06:45.294Z,4.80
2022-08-09T21:09:14.248Z,4.38
2022-08-09T21:14:34.706Z,4.72
2022-08-09T21:18:23.475Z,4.65
2022-08-09T21:20:18.201Z,4.20
2022-08-09T21:22:46.617Z,4.50
2022-08-09T21:25:38.063Z,4.68
2022-08-09T21:28:12.034Z,4.10
2022-08-09T21:30:43.757Z,4.50
2022-08-09T21:33:11.832Z,4.32
2022-08-09T21:35:51.225Z,4.50
2022-08-09T21:38:31.010Z,4.65
2022-08-09T21:41:00.295Z,4.20
2022-08-09T21:43:56.935Z,4.47
2022-08-09T21:46:16.421Z,4.95
2022-08-09T21:48:46.670Z,4.07
2022-08-09T21:51:35.657Z,4.00
2022-08-09T21:54:04.096Z,3.92
2022-08-09T21:56:43.315Z,4.10
2022-08-09T21:59:20.163Z,3.85
2022-08-09T22:02:01.264Z,4.13
2022-08-09T22:04:55.232Z,4.00
2022-08-09T22:07:35.495Z,4.53
2022-08-09T22:10:10.766Z,4.20
2022-08-09T22:12:39.660Z,4.47
2022-08-09T22:15:17.897Z,4.20
2022-08-09T22:17:48.635Z,3.83
2022-08-09T22:20:21.815Z,4.10
2022-08-09T22:22:57.024Z,4.22
2022-08-09T22:26:06.970Z,3.95
2022-08-09T22:28:13.402Z,4.82
2022-08-09T22:30:49.185Z,4.50
2022-08-09T22:33:17.450Z,3.80
2022-08-09T22:36:02.052Z,4.32
2022-08-09T22:38:32.944Z,4.13
2022-08-09T22:41:01.267Z,4.40
2022-08-09T22:44:02.576Z,4.28
2022-08-09T22:48:14.261Z,4.25
2022-08-09T22:49:10.025Z,4.10
2022-08-09T22:51:43.264Z,4.10
2022-08-09T22:54:21.326Z,4.50
2022-08-09T22:56:50.768Z,3.83
2022-08-09T22:59:57.827Z,4.00
2022-08-09T23:02:10.510Z,4.72
2022-08-09T23:04:53.291Z,4.50
2022-08-09T23:08:22.052Z,4.30
2022-08-09T23:10:31.003Z,4.90
2022-08-09T23:12:59.310Z,4.25
2022-08-09T23:15:28.035Z,4.25
2022-08-09T23:17:57.323Z,4.60
2022-08-09T23:20:26.203Z,4.50
2022-08-09T23:22:54.364Z,4.97
2022-08-09T23:25:22.284Z,4.80
2022-08-09T23:28:11.681Z,4.72
2022-08-09T23:30:39.475Z,4.70
2022-08-09T23:33:19.410Z,4.70
2022-08-09T23:36:06.685Z,4.80
2022-08-09T23:38:48.463Z,5.03
2022-08-09T23:41:27.739Z,5.05
2022-08-09T23:43:59.646Z,4.80
2022-08-09T23:46:28.043Z,4.90
2022-08-09T23:48:56.114Z,4.60
2022-08-09T23:51:24.311Z,4.63
2022-08-09T23:53:55.446Z,4.97
2022-08-09T23:56:53.434Z,4.70
2022-08-09T23:59:20.652Z,4.82
